Time;durP1;ratioP1;P1;durP2;ratioP2;P2;SDS_P1;SDS_P2;PMS_P1;PMS_P2;Temp;Humidity;BMP_temperature;BMP_pressure;BME280_temperature;BME280_humidity;BME280_pressure;Samples;Min_cycle;Max_cycle;Signal;HPM_P1;HPM_P2
2023/07/28 00:00:48;;;;;;;2.90;1.10;;;;;;;16.25;100.00;97497.13;4173263;28;20152;-74
2023/07/28 00:02:48;;;;;;;2.80;0.90;;;;;;;16.25;100.00;97488.00;4172124;28;20443;-74
2023/07/28 00:04:49;;;;;;;1.08;0.90;;;;;;;16.20;100.00;97494.09;4172438;28;20586;-74
2023/07/28 00:06:49;;;;;;;2.25;1.00;;;;;;;16.17;100.00;97498.56;4175003;28;20051;-74
2023/07/28 00:08:49;;;;;;;1.38;0.95;;;;;;;16.18;100.00;97508.50;4175715;28;20083;-74
2023/07/28 00:10:50;;;;;;;1.75;0.85;;;;;;;16.18;100.00;97500.13;4175901;28;20044;-74
2023/07/28 00:12:50;;;;;;;1.25;0.93;;;;;;;16.19;100.00;97517.66;4175546;28;20044;-74
2023/07/28 00:14:50;;;;;;;1.40;1.00;;;;;;;16.15;100.00;97514.19;4175496;28;20033;-74
2023/07/28 00:16:52;;;;;;;2.08;1.15;;;;;;;16.14;100.00;97513.41;4175782;28;20130;-74
2023/07/28 00:18:52;;;;;;;1.33;0.93;;;;;;;16.13;100.00;97522.19;4175533;28;20102;-74
2023/07/28 00:20:52;;;;;;;2.78;0.90;;;;;;;16.12;100.00;97526.97;4175024;28;20041;-74
2023/07/28 00:22:52;;;;;;;2.13;0.85;;;;;;;16.11;100.00;97513.47;4174982;28;20049;-74
2023/07/28 00:24:53;;;;;;;2.15;0.95;;;;;;;16.07;100.00;97516.38;4175770;28;20045;-73
2023/07/28 00:26:53;;;;;;;1.42;0.90;;;;;;;16.05;100.00;97524.38;4175827;28;20072;-73
2023/07/28 00:28:53;;;;;;;1.48;1.05;;;;;;;16.02;100.00;97514.09;4175119;28;20127;-73
2023/07/28 00:30:54;;;;;;;0.98;0.88;;;;;;;16.04;100.00;97513.66;4175755;28;20029;-73
2023/07/28 00:32:54;;;;;;;2.92;0.93;;;;;;;15.99;100.00;97509.41;4175387;28;20208;-73
2023/07/28 00:34:54;;;;;;;1.08;0.80;;;;;;;15.99;100.00;97507.38;4175583;28;20080;-73
2023/07/28 00:36:54;;;;;;;1.02;0.80;;;;;;;15.98;100.00;97513.41;4175412;28;20477;-73
2023/07/28 00:38:55;;;;;;;1.38;1.10;;;;;;;16.00;100.00;97513.75;4175603;28;20053;-73
2023/07/28 00:40:55;;;;;;;0.95;0.70;;;;;;;15.99;100.00;97512.19;4175462;28;20045;-73
2023/07/28 00:42:55;;;;;;;1.13;0.73;;;;;;;15.99;100.00;97506.59;4174353;28;20063;-73
2023/07/28 00:44:56;;;;;;;1.25;0.75;;;;;;;15.97;100.00;97504.25;4175990;28;20044;-73
2023/07/28 00:46:57;;;;;;;1.35;0.70;;;;;;;15.95;100.00;97497.53;4175318;28;20048;-73
2023/07/28 00:48:57;;;;;;;1.52;0.90;;;;;;;15.97;100.00;97486.72;4174794;28;20041;-73
2023/07/28 00:50:58;;;;;;;1.55;0.80;;;;;;;15.94;100.00;97477.22;4175287;28;20389;-73
2023/07/28 00:52:58;;;;;;;1.10;0.75;;;;;;;15.96;100.00;97460.81;4175071;28;20053;-73
2023/07/28 00:54:59;;;;;;;1.15;0.73;;;;;;;16.00;100.00;97469.91;4175110;28;20479;-73
2023/07/28 00:56:59;;;;;;;0.70;0.60;;;;;;;16.02;100.00;97464.66;4174518;28;20044;-73
2023/07/28 00:59:00;;;;;;;1.48;0.50;;;;;;;16.04;100.00;97458.63;4175423;28;20300;-74
2023/07/28 01:01:00;;;;;;;0.73;0.68;;;;;;;16.01;100.00;97460.31;4175013;28;20098;-74
2023/07/28 01:03:01;;;;;;;0.85;0.77;;;;;;;16.03;100.00;97465.44;4174653;28;20124;-74
2023/07/28 01:05:02;;;;;;;1.13;0.82;;;;;;;16.00;100.00;97467.09;4175269;28;20076;-74
2023/07/28 01:07:23;;;;;;;0.77;0.70;;;;;;;16.00;100.00;97467.09;4174360;28;20037;-74
2023/07/28 01:10:01;;;;;;;1.30;0.85;;;;;;;16.02;100.00;97464.66;4174829;28;20044;-73
2023/07/28 01:12:07;;;;;;;5.80;0.77;;;;;;;16.02;100.00;97475.03;4140128;28;20131;-74
2023/07/28 01:14:07;;;;;;;2.25;1.00;;;;;;;15.95;100.00;97472.44;4174707;28;20108;-74
2023/07/28 01:16:08;;;;;;;1.40;1.10;;;;;;;15.93;100.00;97463.72;4174827;28;20547;-73
2023/07/28 01:18:08;;;;;;;1.42;0.98;;;;;;;15.98;100.00;97468.78;4174680;28;20362;-73
2023/07/28 01:20:10;;;;;;;1.20;0.88;;;;;;;16.00;100.00;97449.59;4174724;28;20122;-73
2023/07/28 01:22:31;;;;;;;1.20;0.80;;;;;;;15.97;100.00;97448.47;4174790;28;20033;-73
2023/07/28 01:24:55;;;;;;;1.85;0.98;;;;;;;15.99;100.00;97450.81;4174885;28;20441;-74
2023/07/28 01:26:56;;;;;;;0.55;0.55;;;;;;;16.02;100.00;97449.94;4173588;28;20380;-73
2023/07/28 01:28:57;;;;;;;1.17;0.82;;;;;;;16.00;100.00;97444.78;4174612;28;20207;-73
2023/07/28 01:30:57;;;;;;;1.17;0.85;;;;;;;15.98;100.00;97446.47;4174871;28;20132;-73
2023/07/28 01:32:58;;;;;;;0.80;0.63;;;;;;;15.98;100.00;97450.03;4174166;28;20084;-74
2023/07/28 01:34:58;;;;;;;3.15;0.80;;;;;;;15.95;100.00;97450.09;4172765;28;20110;-74
2023/07/28 01:36:58;;;;;;;1.40;1.08;;;;;;;15.96;100.00;97434.94;4174587;28;20421;-74
2023/07/28 01:38:58;;;;;;;1.42;1.00;;;;;;;15.95;100.00;97434.16;4174507;28;20136;-74
2023/07/28 01:40:59;;;;;;;1.15;0.80;;;;;;;15.97;100.00;97434.53;4174161;28;20159;-73
2023/07/28 01:42:59;;;;;;;0.90;0.80;;;;;;;15.93;100.00;97430.25;4173944;28;20428;-73
2023/07/28 01:45:00;;;;;;;1.92;0.90;;;;;;;15.89;100.00;97438.72;4175400;28;20497;-73
2023/07/28 01:47:00;;;;;;;2.95;1.00;;;;;;;15.89;100.00;97440.72;4174422;28;20064;-73
2023/07/28 01:49:00;;;;;;;2.47;0.80;;;;;;;15.86;100.00;97461.91;4174033;28;20568;-73
2023/07/28 01:51:00;;;;;;;1.38;0.90;;;;;;;15.87;100.00;97471.81;4174221;28;20052;-73
2023/07/28 01:53:01;;;;;;;1.35;1.00;;;;;;;15.90;100.00;97472.97;4173689;28;20429;-73
2023/07/28 01:55:02;;;;;;;3.97;1.08;;;;;;;15.88;100.00;97470.59;4174068;28;20440;-74
2023/07/28 01:57:03;;;;;;;1.10;0.88;;;;;;;15.92;100.00;97481.69;4174018;28;20037;-74
2023/07/28 01:59:03;;;;;;;1.52;1.08;;;;;;;15.86;100.00;97483.41;4173886;28;20148;-74
2023/07/28 02:01:03;;;;;;;3.97;1.17;;;;;;;15.81;100.00;97473.59;4174195;28;20075;-74
2023/07/28 02:03:04;;;;;;;2.78;1.30;;;;;;;15.84;100.00;97464.34;4173831;28;20442;-74
2023/07/28 02:05:04;;;;;;;1.48;0.98;;;;;;;15.79;100.00;97462.06;4173169;28;20116;-74
2023/07/28 02:07:04;;;;;;;2.45;1.15;;;;;;;15.83;100.00;97465.56;4173126;28;20037;-73
2023/07/28 02:09:05;;;;;;;0.85;0.70;;;;;;;15.89;100.00;97465.84;4172464;28;20516;-74
2023/07/28 02:11:05;;;;;;;1.05;0.85;;;;;;;15.84;100.00;97469.91;4173163;28;20039;-74
2023/07/28 02:13:05;;;;;;;1.40;0.90;;;;;;;15.87;100.00;97477.41;4172767;28;20048;-74
2023/07/28 02:15:07;;;;;;;1.30;1.00;;;;;;;15.82;100.00;97471.59;4173217;28;20138;-74
2023/07/28 02:17:08;;;;;;;1.80;0.93;;;;;;;15.81;100.00;97470.03;4173454;28;20116;-74
2023/07/28 02:19:08;;;;;;;1.30;1.00;;;;;;;15.77;100.00;97477.69;4173248;28;20075;-74
2023/07/28 02:21:08;;;;;;;1.17;0.90;;;;;;;15.74;100.00;97465.41;4173952;28;20550;-74
2023/07/28 02:23:09;;;;;;;3.00;1.20;;;;;;;15.71;100.00;97475.41;4173557;28;20251;-73
2023/07/28 02:25:10;;;;;;;2.28;1.00;;;;;;;15.73;100.00;97477.78;4172952;28;20230;-74
2023/07/28 02:30:07;;;;;;;0.98;0.90;;;;;;;15.69;100.00;97475.06;4172872;28;20039;-74
2023/07/28 02:32:08;;;;;;;1.05;0.88;;;;;;;15.71;100.00;97477.41;4173653;28;20028;-74
2023/07/28 02:37:05;;;;;;;1.80;0.80;;;;;;;15.67;100.00;97491.47;4173084;28;20502;-74
2023/07/28 02:39:05;;;;;;;1.20;0.93;;;;;;;15.64;100.00;97497.91;4173238;28;20045;-73
2023/07/28 02:41:07;;;;;;;1.45;1.10;;;;;;;15.61;100.00;97493.19;4174068;28;20098;-74
2023/07/28 02:43:07;;;;;;;2.50;1.00;;;;;;;15.60;100.00;97494.38;4172847;28;20052;-74
2023/07/28 02:45:09;;;;;;;1.33;1.00;;;;;;;15.62;100.00;97502.34;4172822;28;20049;-74
2023/07/28 02:47:10;;;;;;;1.50;1.00;;;;;;;15.60;100.00;97493.59;4172681;28;20458;-74
2023/07/28 02:49:10;;;;;;;1.50;1.00;;;;;;;15.61;100.00;97507.13;4173605;28;20079;-74
2023/07/28 02:51:10;;;;;;;2.92;1.20;;;;;;;15.63;100.00;97503.91;4173271;28;20452;-74
2023/07/28 02:53:10;;;;;;;2.28;0.95;;;;;;;15.62;100.00;97505.13;4172355;28;20586;-73
2023/07/28 02:55:11;;;;;;;2.30;1.10;;;;;;;15.63;100.00;97501.91;4173126;28;20033;-74
2023/07/28 02:57:11;;;;;;;4.90;1.00;;;;;;;15.63;100.00;97499.09;4172883;28;20049;-74
2023/07/28 02:59:11;;;;;;;1.98;1.10;;;;;;;15.61;100.00;97492.41;4173384;28;20041;-74
2023/07/28 03:01:12;;;;;;;2.25;1.00;;;;;;;15.63;100.00;97492.75;4173726;28;20072;-74
2023/07/28 03:03:12;;;;;;;2.20;1.10;;;;;;;15.59;100.00;97492.81;4172603;28;20068;-73
2023/07/28 03:05:13;;;;;;;1.65;1.05;;;;;;;15.62;100.00;97497.53;4172665;28;20752;-74
2023/07/28 03:07:13;;;;;;;1.95;1.02;;;;;;;15.64;100.00;97499.91;4173185;28;20539;-74
2023/07/28 03:09:13;;;;;;;1.50;0.98;;;;;;;15.65;100.00;97504.28;4172993;28;20401;-73
2023/07/28 03:11:14;;;;;;;1.58;1.10;;;;;;;15.67;100.00;97502.59;4173217;28;20036;-74
2023/07/28 03:13:14;;;;;;;1.17;0.90;;;;;;;15.68;100.00;97506.19;4172429;28;20040;-74
2023/07/28 03:15:14;;;;;;;1.10;0.90;;;;;;;15.67;100.00;97499.03;4172795;28;20428;-74
2023/07/28 03:17:15;;;;;;;3.03;1.00;;;;;;;15.67;100.00;97501.81;4172973;28;20048;-74
2023/07/28 03:19:15;;;;;;;1.10;0.90;;;;;;;15.66;100.00;97514.97;4173025;28;20499;-74
2023/07/28 03:21:15;;;;;;;0.98;0.80;;;;;;;15.64;100.00;97508.28;4173439;28;20061;-74
2023/07/28 03:23:16;;;;;;;1.33;0.80;;;;;;;15.64;100.00;97513.88;4172094;28;20162;-74
2023/07/28 03:25:16;;;;;;;1.42;0.93;;;;;;;15.65;100.00;97518.22;4172144;28;20049;-74
2023/07/28 03:27:16;;;;;;;3.67;0.93;;;;;;;15.62;100.00;97517.06;4173196;28;20566;-74
2023/07/28 03:29:18;;;;;;;1.23;0.73;;;;;;;15.63;100.00;97521.41;4172832;28;20480;-74
2023/07/28 03:31:18;;;;;;;1.58;0.80;;;;;;;15.61;100.00;97523.06;4173317;28;20037;-74
2023/07/28 03:33:18;;;;;;;3.60;0.75;;;;;;;15.56;100.00;97532.72;4172162;28;20090;-74
2023/07/28 03:35:19;;;;;;;0.93;0.75;;;;;;;15.56;100.00;97529.94;4171734;28;20124;-73
2023/07/28 03:37:19;;;;;;;4.80;0.95;;;;;;;15.53;100.00;97528.00;4172206;28;20828;-74
2023/07/28 03:39:19;;;;;;;2.35;0.70;;;;;;;15.51;100.00;97533.25;4172385;28;20047;-74
2023/07/28 03:41:20;;;;;;;1.83;0.80;;;;;;;15.52;100.00;97542.38;4176514;28;20501;-74
2023/07/28 03:43:21;;;;;;;0.70;0.50;;;;;;;15.52;100.00;97542.38;4175768;28;20041;-73
2023/07/28 03:45:21;;;;;;;1.92;0.75;;;;;;;15.51;100.00;97543.59;4176774;28;20036;-74
2023/07/28 03:47:21;;;;;;;1.50;0.90;;;;;;;15.54;100.00;97549.09;4176532;28;20066;-74
2023/07/28 03:49:22;;;;;;;3.08;0.80;;;;;;;15.51;100.00;97549.19;4175618;28;20044;-74
2023/07/28 03:51:22;;;;;;;1.42;0.90;;;;;;;15.51;100.00;97555.53;4174442;28;20144;-73
2023/07/28 03:53:22;;;;;;;2.13;0.70;;;;;;;15.49;100.00;97557.97;4175708;28;20120;-73
2023/07/28 03:55:23;;;;;;;1.52;0.82;;;;;;;15.48;100.00;97558.41;4175865;28;20041;-73
2023/07/28 03:57:23;;;;;;;1.13;0.65;;;;;;;15.49;100.00;97557.19;4176093;28;20064;-73
2023/07/28 03:59:23;;;;;;;0.85;0.70;;;;;;;15.49;100.00;97554.41;4175474;28;20495;-73
2023/07/28 04:01:24;;;;;;;2.05;0.75;;;;;;;15.52;100.00;97557.09;4174879;28;20094;-73
2023/07/28 04:03:24;;;;;;;0.80;0.63;;;;;;;15.50;100.00;97553.97;4175301;28;20041;-73
2023/07/28 04:05:24;;;;;;;1.75;0.65;;;;;;;15.50;100.00;97553.19;4175628;28;20385;-73
2023/07/28 04:07:25;;;;;;;2.67;0.55;;;;;;;15.48;100.00;97553.63;4175468;28;20051;-74
2023/07/28 04:09:25;;;;;;;1.90;0.73;;;;;;;15.50;100.00;97539.25;4175338;28;20049;-73
2023/07/28 04:11:25;;;;;;;1.70;0.73;;;;;;;15.50;100.00;97544.81;4176140;28;20472;-73
2023/07/28 04:13:25;;;;;;;0.77;0.60;;;;;;;15.51;100.00;97551.97;4175612;28;20222;-73
2023/07/28 04:15:26;;;;;;;1.20;0.93;;;;;;;15.48;100.00;97544.47;4175508;28;20098;-73
2023/07/28 04:17:27;;;;;;;1.33;0.65;;;;;;;15.45;100.00;97546.09;4174995;28;20381;-73
2023/07/28 04:19:29;;;;;;;2.25;0.63;;;;;;;15.42;100.00;97542.19;4175840;28;20469;-74
2023/07/28 04:21:29;;;;;;;1.98;0.68;;;;;;;15.46;100.00;97537.31;4175703;28;20402;-73
2023/07/28 04:23:29;;;;;;;3.63;0.80;;;;;;;15.47;100.00;97546.47;4174759;28;20055;-73
2023/07/28 04:25:29;;;;;;;0.90;0.45;;;;;;;15.50;100.00;97542.03;4175788;28;20524;-73
2023/07/28 04:27:30;;;;;;;0.98;0.70;;;;;;;15.49;100.00;97544.03;4174792;28;20456;-73
2023/07/28 04:29:30;;;;;;;0.68;0.50;;;;;;;15.50;100.00;97547.63;4174542;28;20357;-73
2023/07/28 04:31:30;;;;;;;1.73;0.50;;;;;;;15.52;100.00;97551.53;4175565;28;20385;-73
2023/07/28 04:33:31;;;;;;;1.45;0.40;;;;;;;15.50;100.00;97553.97;4175228;28;20044;-73
2023/07/28 04:35:31;;;;;;;0.95;0.40;;;;;;;15.52;100.00;97553.53;4175071;28;20037;-73
2023/07/28 04:37:31;;;;;;;1.70;0.60;;;;;;;15.50;100.00;97553.97;4175028;28;20120;-73
2023/07/28 04:39:32;;;;;;;3.30;0.75;;;;;;;15.50;100.00;97548.41;4175850;28;20296;-73
2023/07/28 04:41:32;;;;;;;2.13;0.60;;;;;;;15.53;100.00;97555.09;4175323;28;20037;-73
2023/07/28 04:43:32;;;;;;;1.70;0.68;;;;;;;15.54;100.00;97548.31;4173745;28;20494;-73
2023/07/28 04:45:33;;;;;;;2.45;0.40;;;;;;;15.53;100.00;97550.31;4174236;28;20049;-73
2023/07/28 04:47:33;;;;;;;3.22;0.40;;;;;;;15.59;100.00;97558.94;4173973;28;20059;-73
2023/07/28 04:49:33;;;;;;;3.92;0.60;;;;;;;15.58;100.00;97554.59;4167007;28;20055;-73
2023/07/28 04:51:33;;;;;;;1.65;0.65;;;;;;;15.59;100.00;97556.94;4172911;28;20044;-73
2023/07/28 04:53:34;;;;;;;3.00;0.60;;;;;;;15.61;100.00;97559.31;4174268;28;20052;-73
2023/07/28 04:55:34;;;;;;;0.50;0.50;;;;;;;15.64;100.00;97562.03;4173957;28;20060;-73
2023/07/28 04:57:34;;;;;;;2.15;0.60;;;;;;;15.66;100.00;97564.41;4173574;28;20041;-73
2023/07/28 04:59:35;;;;;;;0.63;0.47;;;;;;;15.69;100.00;97563.50;4174967;28;20114;-73
2023/07/28 05:01:35;;;;;;;0.80;0.52;;;;;;;15.76;100.00;97570.94;4174682;28;20119;-74
2023/07/28 05:03:35;;;;;;;1.45;0.55;;;;;;;15.79;100.00;97564.47;4174015;28;20157;-73
2023/07/28 05:05:36;;;;;;;0.40;0.40;;;;;;;15.88;100.00;97571.00;4173934;28;20043;-73
2023/07/28 05:07:36;;;;;;;3.65;0.60;;;;;;;15.98;100.00;97581.16;4173200;28;20059;-73
2023/07/28 05:09:37;;;;;;;1.95;0.93;;;;;;;16.00;100.00;97575.91;4174650;28;20441;-73
2023/07/28 05:11:37;;;;;;;0.45;0.45;;;;;;;16.04;100.00;97580.59;4171308;28;20495;-73
2023/07/28 05:13:37;;;;;;;0.40;0.40;;;;;;;16.06;100.00;97583.78;4172877;28;20072;-73
2023/07/28 05:15:38;;;;;;;3.00;0.50;;;;;;;16.04;100.00;97581.38;4174236;28;20293;-73
2023/07/28 05:17:38;;;;;;;1.45;0.63;;;;;;;16.03;100.00;97588.19;4173649;28;20045;-73
2023/07/28 05:19:38;;;;;;;0.40;0.40;;;;;;;16.04;100.00;97583.41;4172575;28;20040;-73
2023/07/28 05:21:39;;;;;;;0.55;0.50;;;;;;;16.08;100.00;97593.25;4174955;28;20037;-73
2023/07/28 05:23:39;;;;;;;1.38;0.40;;;;;;;16.08;100.00;97587.69;4174086;28;20464;-73
2023/07/28 05:25:40;;;;;;;1.65;0.50;;;;;;;16.12;100.00;97587.59;4174204;28;20083;-73
2023/07/28 05:27:40;;;;;;;0.55;0.50;;;;;;;16.15;100.00;97595.09;4174622;28;20072;-73
2023/07/28 05:29:41;;;;;;;0.65;0.45;;;;;;;16.16;100.00;97593.88;4174637;28;20056;-73
2023/07/28 05:31:41;;;;;;;1.13;0.50;;;;;;;16.18;100.00;97592.22;4174759;28;20073;-73
2023/07/28 05:33:41;;;;;;;1.45;0.38;;;;;;;16.20;100.00;97586.19;4104825;28;20082;-73
2023/07/28 05:35:42;;;;;;;0.98;0.70;;;;;;;16.21;100.00;97588.53;4181907;28;20056;-73
2023/07/28 05:37:42;;;;;;;1.95;0.70;;;;;;;16.28;100.00;97595.94;4174292;28;20033;-73
2023/07/28 05:39:44;;;;;;;0.80;0.52;;;;;;;16.30;100.00;97607.44;4174714;28;20151;-73
2023/07/28 05:41:44;;;;;;;2.20;0.73;;;;;;;16.33;100.00;97605.81;4173385;28;20033;-73
2023/07/28 05:43:44;;;;;;;1.58;0.90;;;;;;;16.34;100.00;97608.16;4174015;28;20321;-73
2023/07/28 05:45:48;;;;;;;1.98;0.75;;;;;;;16.40;100.00;97614.00;4174269;28;20131;-73
2023/07/28 05:47:48;;;;;;;1.55;0.60;;;;;;;16.44;100.00;97615.47;4174603;28;20045;-73
2023/07/28 05:49:48;;;;;;;4.32;0.63;;;;;;;16.48;100.00;97615.41;4174168;28;20594;-73
2023/07/28 05:51:48;;;;;;;0.60;0.60;;;;;;;16.48;100.00;97605.00;4174168;28;20055;-73
2023/07/28 05:53:50;;;;;;;0.70;0.68;;;;;;;16.48;100.00;97610.59;4173572;28;20401;-72
2023/07/28 05:55:50;;;;;;;0.80;0.68;;;;;;;16.53;100.00;97610.03;4173914;28;20492;-73
2023/07/28 05:57:50;;;;;;;0.85;0.80;;;;;;;16.53;100.00;97604.47;4170475;28;20073;-73
2023/07/28 05:59:51;;;;;;;2.33;0.73;;;;;;;16.56;100.00;97614.78;4170167;28;20364;-73
2023/07/28 06:01:51;;;;;;;0.82;0.70;;;;;;;16.56;100.00;97611.19;4172636;28;20122;-73
2023/07/28 06:03:55;;;;;;;0.63;0.60;;;;;;;16.56;100.00;97606.41;4170881;28;20064;-73
2023/07/28 06:05:55;;;;;;;1.23;0.80;;;;;;;16.56;100.00;97614.00;4172250;28;20041;-73
2023/07/28 06:07:56;;;;;;;1.55;0.85;;;;;;;16.57;100.00;97615.56;4172793;28;20385;-73
2023/07/28 06:09:56;;;;;;;1.17;0.90;;;;;;;16.58;100.00;97617.13;4171700;28;20029;-73
2023/07/28 06:11:56;;;;;;;0.80;0.73;;;;;;;16.63;100.00;97616.56;4173168;28;20661;-73
2023/07/28 06:13:57;;;;;;;0.75;0.70;;;;;;;16.64;100.00;97615.38;4172875;28;20338;-73
2023/07/28 06:15:58;;;;;;;1.10;0.70;;;;;;;16.70;100.00;97610.03;4172490;28;20045;-73
2023/07/28 06:17:58;;;;;;;2.25;0.80;;;;;;;16.76;100.00;97614.66;4173661;28;20118;-73
2023/07/28 06:19:59;;;;;;;0.90;0.70;;;;;;;16.79;100.00;97616.56;4173530;28;20457;-73
2023/07/28 06:22:00;;;;;;;1.52;0.82;;;;;;;16.85;100.00;97622.41;4172558;28;20120;-73
2023/07/28 06:24:00;;;;;;;2.20;0.90;;;;;;;16.91;100.00;97614.28;4172858;28;20041;-73
2023/07/28 06:26:01;;;;;;;1.58;0.70;;;;;;;16.96;100.00;97619.31;4167802;28;20037;-73
2023/07/28 06:28:01;;;;;;;1.38;0.70;;;;;;;16.99;100.00;97624.03;4169354;28;20036;-73
2023/07/28 06:30:02;;;;;;;1.05;0.85;;;;;;;17.02;100.00;97625.94;4172395;28;20036;-73
2023/07/28 06:32:03;;;;;;;1.48;0.70;;;;;;;17.04;100.00;97624.25;4172611;28;20074;-73
2023/07/28 06:34:03;;;;;;;0.93;0.90;;;;;;;17.11;100.00;97626.09;4171441;28;20017;-73
2023/07/28 06:36:04;;;;;;;2.35;0.90;;;;;;;17.09;100.00;97634.91;4172832;28;20524;-73
2023/07/28 06:38:04;;;;;;;1.42;0.90;;;;;;;17.09;100.00;97628.53;4172945;28;20063;-73
2023/07/28 06:40:07;;;;;;;1.73;0.80;;;;;;;17.11;100.00;97637.25;4173208;28;20048;-73
2023/07/28 06:42:07;;;;;;;0.90;0.80;;;;;;;17.13;100.00;97638.41;4172854;28;20340;-73
2023/07/28 06:44:08;;;;;;;1.55;1.00;;;;;;;17.17;100.00;97641.09;4166446;28;20057;-73
2023/07/28 06:46:08;;;;;;;0.90;0.70;;;;;;;17.24;100.00;97634.53;4171409;28;20871;-73
2023/07/28 06:48:08;;;;;;;1.50;0.75;;;;;;;17.30;100.00;97641.91;4169724;28;20025;-73
2023/07/28 06:50:10;;;;;;;3.08;0.80;;;;;;;17.38;100.00;97634.91;4170115;28;20052;-73
2023/07/28 06:52:11;;;;;;;2.83;1.33;;;;;;;17.47;100.00;97642.63;4168540;28;20488;-73
2023/07/28 06:54:12;;;;;;;2.08;0.80;;;;;;;17.54;100.00;97650.00;4171907;28;20033;-73
2023/07/28 06:56:12;;;;;;;0.80;0.70;;;;;;;17.78;100.00;97639.31;4172953;28;20028;-73
2023/07/28 06:58:13;;;;;;;2.25;0.88;;;;;;;17.93;100.00;97644.03;4172809;28;20036;-73
2023/07/28 07:00:14;;;;;;;1.70;0.90;;;;;;;18.13;100.00;97651.44;4170681;28;20419;-73
2023/07/28 07:02:15;;;;;;;1.13;0.70;;;;;;;18.27;100.00;97641.78;4172647;28;20040;-73
2023/07/28 07:04:15;;;;;;;1.77;0.90;;;;;;;18.35;100.00;97640.31;4172679;28;20017;-73
2023/07/28 07:06:16;;;;;;;1.20;0.88;;;;;;;18.36;100.00;97637.06;4172780;28;20037;-73
2023/07/28 07:08:17;;;;;;;0.70;0.70;;;;;;;18.23;100.00;97639.91;4172810;28;20082;-73
2023/07/28 07:10:17;;;;;;;1.27;0.80;;;;;;;18.23;100.00;97647.53;4173243;28;20039;-73
2023/07/28 07:12:19;;;;;;;1.17;0.80;;;;;;;18.28;100.00;97635.72;4172861;28;20025;-73
2023/07/28 07:14:19;;;;;;;1.35;0.70;;;;;;;18.24;100.00;97646.28;4172271;28;20039;-73
2023/07/28 07:16:19;;;;;;;0.85;0.70;;;;;;;18.31;100.00;97646.06;4172745;28;20698;-73
2023/07/28 07:18:20;;;;;;;1.27;0.70;;;;;;;18.27;100.00;97641.78;4172839;28;20206;-73
2023/07/28 07:20:20;;;;;;;0.80;0.80;;;;;;;18.29;100.00;97642.13;4170369;28;20057;-73
2023/07/28 07:22:20;;;;;;;0.68;0.68;;;;;;;18.28;100.00;97646.16;4171568;28;20428;-72
2023/07/28 07:24:21;;;;;;;1.52;1.00;;;;;;;18.38;100.00;97640.22;4172459;28;20771;-73
2023/07/28 07:26:21;;;;;;;1.70;0.98;;;;;;;18.49;100.00;97653.88;4172733;28;20124;-73
2023/07/28 07:28:22;;;;;;;1.75;0.82;;;;;;;18.66;100.00;97658.13;4172695;28;20041;-70
2023/07/28 07:30:22;;;;;;;4.25;1.08;;;;;;;18.77;100.00;97655.72;4172974;28;20093;-70
2023/07/28 07:32:23;;;;;;;1.67;0.98;;;;;;;18.88;100.00;97649.75;4172672;28;20521;-70
2023/07/28 07:34:24;;;;;;;1.65;1.05;;;;;;;19.01;100.00;97647.69;4172969;28;20072;-70
2023/07/28 07:36:24;;;;;;;1.10;0.80;;;;;;;19.13;100.00;97651.69;4172241;28;20534;-70
2023/07/28 07:38:25;;;;;;;2.25;0.90;;;;;;;19.23;100.00;97644.91;4172333;28;20124;-70
2023/07/28 07:40:25;;;;;;;1.15;0.80;;;;;;;19.43;100.00;97655.00;4171708;28;20037;-70
2023/07/28 07:42:25;;;;;;;0.68;0.68;;;;;;;19.57;100.00;97654.50;4172401;28;20453;-70
2023/07/28 07:44:26;;;;;;;1.00;0.90;;;;;;;19.70;100.00;97658.03;4172439;28;20051;-70
2023/07/28 07:46:27;;;;;;;2.25;1.05;;;;;;;19.80;100.00;97654.03;4116735;28;20440;-70
2023/07/28 07:48:27;;;;;;;1.85;0.82;;;;;;;19.83;100.00;97660.72;4171130;28;20045;-70
2023/07/28 07:50:27;;;;;;;1.08;0.90;;;;;;;19.85;100.00;97653.41;4172252;28;20080;-70
2023/07/28 07:52:28;;;;;;;1.02;0.90;;;;;;;19.94;100.00;97661.09;4170820;28;20037;-70
2023/07/28 07:54:28;;;;;;;1.23;1.00;;;;;;;19.96;100.00;97660.66;4172507;28;20474;-70
2023/07/28 07:56:28;;;;;;;2.25;0.90;;;;;;;19.92;100.00;97669.19;4172406;28;20458;-70
2023/07/28 07:58:29;;;;;;;2.72;1.05;;;;;;;19.92;100.00;97660.78;4171953;28;20127;-70
2023/07/28 08:00:29;;;;;;;1.40;1.17;;;;;;;19.96;100.00;97674.69;4172814;28;20657;-70
2023/07/28 08:02:29;;;;;;;1.17;1.08;;;;;;;19.98;100.00;97656.13;4172223;28;20044;-70
2023/07/28 08:04:31;;;;;;;2.88;1.00;;;;;;;20.09;100.00;97670.53;4171572;28;20068;-70
2023/07/28 08:06:31;;;;;;;1.00;0.85;;;;;;;20.13;100.00;97668.38;4170468;28;20481;-71
2023/07/28 08:08:31;;;;;;;1.40;1.00;;;;;;;20.14;100.00;97661.50;4171968;28;20043;-70
2023/07/28 08:10:32;;;;;;;1.67;1.10;;;;;;;20.24;100.00;97672.78;4173041;28;20354;-70
2023/07/28 08:12:32;;;;;;;1.33;0.90;;;;;;;20.29;100.00;97666.56;4171745;28;20381;-70
2023/07/28 08:14:33;;;;;;;1.45;0.90;;;;;;;20.29;100.00;97672.94;4172102;28;20044;-70
2023/07/28 08:16:33;;;;;;;0.77;0.77;;;;;;;20.41;100.00;97669.25;4172741;28;20033;-71
2023/07/28 08:18:33;;;;;;;1.75;0.93;;;;;;;20.51;100.00;97666.47;4172618;28;20367;-71
2023/07/28 08:20:34;;;;;;;1.95;1.00;;;;;;;20.57;100.00;97662.59;4172520;28;20072;-71
2023/07/28 08:22:34;;;;;;;0.90;0.73;;;;;;;20.63;100.00;97660.75;4171974;28;20358;-71
2023/07/28 08:24:34;;;;;;;1.00;0.90;;;;;;;20.75;100.00;97667.47;4172812;28;20530;-70
2023/07/28 08:26:35;;;;;;;1.88;0.80;;;;;;;20.84;100.00;97669.50;4170385;28;20128;-71
2023/07/28 08:28:35;;;;;;;0.95;0.80;;;;;;;20.92;100.00;97671.56;4174634;28;20037;-71
2023/07/28 08:30:35;;;;;;;4.78;0.77;;;;;;;20.81;100.00;97654.38;4175095;28;20076;-71
2023/07/28 08:32:36;;;;;;;2.05;0.70;;;;;;;20.94;100.00;97654.25;4174776;28;20439;-71
2023/07/28 08:34:36;;;;;;;0.90;0.80;;;;;;;20.94;100.00;97659.84;4175186;28;20041;-71
2023/07/28 08:36:37;;;;;;;0.88;0.70;;;;;;;20.98;100.00;97668.91;4175775;28;20044;-71
2023/07/28 08:38:37;;;;;;;0.70;0.70;;;;;;;20.92;100.00;97660.31;4175463;28;20484;-71
2023/07/28 08:40:37;;;;;;;1.67;0.77;;;;;;;20.96;100.00;97660.94;4174871;28;20170;-71
2023/07/28 08:42:39;;;;;;;0.70;0.70;;;;;;;21.14;100.00;97665.78;4174487;28;20469;-71
2023/07/28 08:44:40;;;;;;;1.80;0.75;;;;;;;21.09;100.00;97663.59;4175776;28;20045;-71
2023/07/28 08:46:40;;;;;;;0.60;0.60;;;;;;;21.15;100.00;97667.34;4176047;28;20041;-71
2023/07/28 08:48:40;;;;;;;0.77;0.60;;;;;;;21.20;100.00;97674.41;4175116;28;20507;-71
2023/07/28 08:50:41;;;;;;;1.23;0.65;;;;;;;21.22;100.00;97671.88;4175567;28;20061;-71
2023/07/28 08:52:41;;;;;;;1.92;0.55;;;;;;;21.22;100.00;97681.09;4174635;28;20106;-71
2023/07/28 08:54:42;;;;;;;0.70;0.60;;;;;;;21.09;100.00;97669.22;4175133;28;20051;-71
2023/07/28 08:56:43;;;;;;;0.95;0.50;;;;;;;21.22;100.00;97677.50;4175288;28;20339;-71
2023/07/28 08:58:44;;;;;;;0.80;0.73;;;;;;;21.18;100.00;97688.13;4175870;28;20489;-71
2023/07/28 09:00:49;;;;;;;1.17;0.80;;;;;;;21.19;100.00;97684.09;4174552;28;20051;-71
2023/07/28 09:02:50;;;;;;;1.42;0.50;;;;;;;21.14;100.00;97671.41;4172569;28;20083;-71
2023/07/28 09:04:50;;;;;;;0.98;0.60;;;;;;;21.23;100.00;97685.47;4174934;28;20041;-71
2023/07/28 09:06:51;;;;;;;1.45;0.80;;;;;;;21.29;100.00;97678.00;4175851;28;20044;-71
2023/07/28 09:08:51;;;;;;;0.88;0.70;;;;;;;21.37;100.00;97697.41;4174650;28;20049;-71
2023/07/28 09:10:52;;;;;;;0.80;0.50;;;;;;;21.33;100.00;97686.28;4173256;28;20044;-71
2023/07/28 09:12:52;;;;;;;0.90;0.60;;;;;;;21.48;100.00;97690.03;4175019;28;20060;-71
2023/07/28 09:14:58;;;;;;;0.50;0.50;;;;;;;21.71;100.00;97685.00;4174672;28;20041;-71
2023/07/28 09:17:09;;;;;;;1.58;0.70;;;;;;;21.91;100.00;97692.94;4174894;28;20536;-71
2023/07/28 09:19:10;;;;;;;0.70;0.60;;;;;;;21.96;100.00;97700.75;4174840;28;20124;-71
2023/07/28 09:21:21;;;;;;;2.22;0.63;;;;;;;21.78;100.00;97696.72;4174477;28;20131;-71
2023/07/28 09:23:30;;;;;;;0.68;0.60;;;;;;;21.74;100.00;97700.94;4174307;28;20041;-71
2023/07/28 09:25:32;;;;;;;1.90;0.90;;;;;;;21.44;100.00;97705.53;4174715;28;20037;-71
2023/07/28 09:27:32;;;;;;;0.67;0.60;;;;;;;21.49;100.00;97711.28;4174779;28;20545;-71